createdAt,value
2022-10-18T00:00:25.753Z,4.57
2022-10-18T00:02:53.395Z,7.10
2022-10-18T00:05:21.077Z,4.43
2022-10-18T00:07:48.714Z,4.93
2022-10-18T00:10:16.364Z,6.18
2022-10-18T00:12:44.236Z,5.40
2022-10-18T00:15:13.362Z,5.90
2022-10-18T00:17:41.218Z,5.20
2022-10-18T00:20:09.871Z,3.03
2022-10-18T00:22:38.892Z,4.43
2022-10-18T00:25:08.780Z,3.88
2022-10-18T00:27:36.512Z,5.30
2022-10-18T00:30:04.742Z,4.13
2022-10-18T00:32:37.539Z,5.47
2022-10-18T00:35:06.693Z,5.28
2022-10-18T00:37:34.933Z,8.38
2022-10-18T00:40:03.090Z,5.53
2022-10-18T00:42:33.996Z,4.45
2022-10-18T00:45:06.555Z,3.53
2022-10-18T00:47:36.826Z,4.60
2022-10-18T00:50:06.771Z,9.73
2022-10-18T00:52:37.612Z,4.25
2022-10-18T00:55:07.139Z,4.07
2022-10-18T00:57:35.262Z,4.32
2022-10-18T01:00:07.440Z,6.95
2022-10-18T01:02:37.292Z,4.88
2022-10-18T01:05:05.706Z,5.47
2022-10-18T01:07:51.002Z,4.70
2022-10-18T01:10:26.309Z,3.75
2022-10-18T01:13:09.963Z,5.68
2022-10-18T01:15:52.358Z,5.05
2022-10-18T01:18:26.899Z,4.60
2022-10-18T01:21:11.704Z,5.10
2022-10-18T01:24:19.225Z,5.13
2022-10-18T01:27:08.100Z,4.38
2022-10-18T01:29:51.875Z,5.93
2022-10-18T01:32:23.948Z,4.80
2022-10-18T01:34:57.183Z,8.25
2022-10-18T01:37:26.109Z,5.40
2022-10-18T01:39:59.467Z,8.70
2022-10-18T01:42:27.919Z,8.90
2022-10-18T01:44:56.456Z,6.70
2022-10-18T01:47:26.483Z,3.92
2022-10-18T01:49:59.366Z,6.07
2022-10-18T01:52:27.050Z,5.40
2022-10-18T01:54:56.416Z,4.40
2022-10-18T01:57:31.935Z,3.05
2022-10-18T02:00:03.877Z,4.18
2022-10-18T02:02:43.577Z,4.00
2022-10-18T02:05:18.019Z,5.68
2022-10-18T02:08:00.211Z,9.20
2022-10-18T02:10:42.812Z,6.82
2022-10-18T02:13:13.844Z,4.50
2022-10-18T02:15:45.451Z,3.75
2022-10-18T02:18:19.516Z,4.70
2022-10-18T02:20:49.426Z,5.10
2022-10-18T02:23:22.334Z,4.88
2022-10-18T02:25:50.164Z,5.15
2022-10-18T02:28:17.967Z,4.47
2022-10-18T02:30:52.857Z,4.80
2022-10-18T02:33:28.701Z,8.68
2022-10-18T02:36:02.110Z,4.72
2022-10-18T02:38:31.748Z,4.25
2022-10-18T02:41:00.015Z,3.88
2022-10-18T02:43:27.942Z,5.95
2022-10-18T02:45:55.894Z,6.90
2022-10-18T02:48:24.938Z,3.70
2022-10-18T02:50:52.606Z,4.20
2022-10-18T02:53:20.310Z,4.07
2022-10-18T02:55:48.031Z,6.35
2022-10-18T02:58:15.672Z,6.28
2022-10-18T03:00:43.286Z,5.05
2022-10-18T03:03:10.933Z,3.75
2022-10-18T03:05:39.900Z,6.80
2022-10-18T03:08:07.606Z,6.40
2022-10-18T03:10:35.241Z,4.85
2022-10-18T03:13:02.867Z,4.18
2022-10-18T03:15:30.489Z,4.20
2022-10-18T03:17:58.106Z,5.05
2022-10-18T03:20:25.722Z,4.90
2022-10-18T03:22:54.738Z,3.78
2022-10-18T03:25:22.403Z,7.07
2022-10-18T03:27:50.057Z,5.40
2022-10-18T03:30:17.998Z,5.15
2022-10-18T03:32:45.658Z,3.97
2022-10-18T03:35:13.326Z,5.78
2022-10-18T03:37:40.982Z,4.25
2022-10-18T03:40:11.016Z,4.75
2022-10-18T03:42:38.755Z,8.77
2022-10-18T03:45:07.577Z,6.45
2022-10-18T03:47:35.328Z,5.53
2022-10-18T03:50:03.022Z,5.47
2022-10-18T03:52:31.008Z,6.93
2022-10-18T03:54:58.953Z,5.70
2022-10-18T03:57:28.089Z,7.53
2022-10-18T03:59:55.735Z,6.63
2022-10-18T04:02:23.407Z,5.88
2022-10-18T04:04:51.040Z,6.70
2022-10-18T04:07:18.998Z,8.02
2022-10-18T04:09:46.698Z,9.82
2022-10-18T04:12:14.347Z,6.13
2022-10-18T04:14:43.420Z,9.18
2022-10-18T04:17:11.112Z,7.20
2022-10-18T04:19:38.769Z,6.25
2022-10-18T04:22:06.435Z,5.60
2022-10-18T04:24:34.076Z,5.95
2022-10-18T04:27:01.704Z,6.30
2022-10-18T04:29:29.319Z,9.25
2022-10-18T04:31:58.341Z,8.00
2022-10-18T04:34:25.999Z,4.97
2022-10-18T04:36:54.234Z,7.63
2022-10-18T04:39:21.917Z,5.90
2022-10-18T04:41:49.616Z,6.63
2022-10-18T04:44:17.438Z,5.53
2022-10-18T04:46:45.099Z,7.38
2022-10-18T04:49:14.509Z,7.60
2022-10-18T04:51:42.181Z,7.47
2022-10-18T04:54:09.831Z,6.53
2022-10-18T04:56:37.511Z,7.47
2022-10-18T04:59:05.162Z,5.45
2022-10-18T05:01:32.839Z,8.10
2022-10-18T05:04:00.563Z,7.40
2022-10-18T05:06:29.587Z,6.82
2022-10-18T05:08:57.286Z,5.70
2022-10-18T05:11:24.952Z,6.13
2022-10-18T05:13:52.771Z,5.97
2022-10-18T05:16:20.439Z,5.40
2022-10-18T05:18:48.170Z,7.57
2022-10-18T05:21:15.937Z,5.88
2022-10-18T05:23:44.879Z,6.00
2022-10-18T05:26:12.639Z,8.65
2022-10-18T05:28:41.325Z,6.57
2022-10-18T05:31:12.364Z,8.10
2022-10-18T05:33:40.240Z,8.85
2022-10-18T05:36:08.580Z,6.47
2022-10-18T05:38:38.842Z,12.90
2022-10-18T05:41:08.073Z,6.68
2022-10-18T05:43:35.768Z,7.32
2022-10-18T05:46:04.186Z,8.00
2022-10-18T05:48:31.972Z,14.80
2022-10-18T05:51:00.045Z,9.05
2022-10-18T05:53:42.940Z,6.97
2022-10-18T05:56:12.757Z,8.43
2022-10-18T05:58:41.540Z,8.80
2022-10-18T06:01:10.279Z,12.38
2022-10-18T06:03:37.977Z,10.73
2022-10-18T06:06:07.600Z,8.30
2022-10-18T06:08:36.514Z,9.13
2022-10-18T06:11:08.021Z,10.48
2022-10-18T06:13:41.054Z,8.88
2022-10-18T06:16:09.405Z,6.82
2022-10-18T06:18:37.159Z,9.23
2022-10-18T06:21:05.285Z,9.70
2022-10-18T06:23:32.935Z,11.35
2022-10-18T06:26:01.665Z,8.20
2022-10-18T06:28:30.376Z,10.40
2022-10-18T06:30:59.449Z,7.68
2022-10-18T06:33:27.410Z,9.52
2022-10-18T06:35:56.515Z,10.30
2022-10-18T06:38:24.263Z,9.32
2022-10-18T06:40:52.147Z,7.78
2022-10-18T06:43:21.393Z,8.38
2022-10-18T06:45:49.317Z,10.27
2022-10-18T06:50:56.910Z,8.90
2022-10-18T06:53:26.112Z,7.93
2022-10-18T06:55:54.146Z,9.65
2022-10-18T06:58:21.786Z,6.90
2022-10-18T07:00:49.427Z,8.90
2022-10-18T07:03:18.437Z,10.75
2022-10-18T07:05:46.116Z,7.63
2022-10-18T07:08:13.761Z,8.43
2022-10-18T07:10:41.464Z,9.43
2022-10-18T07:13:30.969Z,9.52
2022-10-18T07:16:05.606Z,7.45
2022-10-18T07:18:35.793Z,12.63
2022-10-18T07:21:04.920Z,9.80
2022-10-18T07:23:33.888Z,11.70
2022-10-18T07:26:01.960Z,13.25
2022-10-18T07:28:30.428Z,13.50
2022-10-18T07:31:01.206Z,12.27
2022-10-18T07:33:31.258Z,15.70
2022-10-18T07:36:03.492Z,13.35
2022-10-18T07:38:31.200Z,10.93
2022-10-18T07:40:59.449Z,10.85
2022-10-18T07:43:27.332Z,11.18
2022-10-18T07:45:55.707Z,14.43
2022-10-18T07:48:23.538Z,12.48
2022-10-18T07:50:51.323Z,16.83
2022-10-18T07:53:20.611Z,13.50
2022-10-18T07:55:48.286Z,20.50
2022-10-18T07:58:15.941Z,15.57
2022-10-18T08:00:44.299Z,14.48
2022-10-18T08:03:11.942Z,18.50
2022-10-18T08:05:39.588Z,17.00
2022-10-18T08:08:08.220Z,17.02
2022-10-18T08:10:37.583Z,21.98
2022-10-18T08:13:05.247Z,18.80
2022-10-18T08:15:32.989Z,17.60
2022-10-18T08:18:00.688Z,17.30
2022-10-18T08:20:31.129Z,17.38
2022-10-18T08:23:00.573Z,19.58
2022-10-18T08:25:28.925Z,20.60
2022-10-18T08:27:58.326Z,18.08
2022-10-18T08:30:26.069Z,20.48
2022-10-18T08:32:53.898Z,22.23
2022-10-18T08:35:21.591Z,16.58
2022-10-18T08:37:49.220Z,19.00
2022-10-18T08:40:17.414Z,21.27
2022-10-18T08:43:00.359Z,24.83
2022-10-18T08:45:41.561Z,17.80
2022-10-18T08:48:21.794Z,21.85
2022-10-18T08:50:51.986Z,14.48
2022-10-18T08:53:26.017Z,18.13
2022-10-18T08:55:58.864Z,18.65
2022-10-18T08:58:32.109Z,21.60
2022-10-18T09:01:08.707Z,17.00
2022-10-18T09:06:24.080Z,18.50
2022-10-18T09:09:04.456Z,16.23
2022-10-18T09:11:51.686Z,19.77
2022-10-18T09:17:15.841Z,18.65
2022-10-18T09:22:38.867Z,20.90
2022-10-18T09:25:17.292Z,13.80
2022-10-18T09:27:52.533Z,16.20
2022-10-18T09:30:30.562Z,20.63
2022-10-18T09:33:11.748Z,12.43
2022-10-18T09:35:44.843Z,14.65
2022-10-18T09:38:15.658Z,16.10
2022-10-18T09:40:52.901Z,13.38
2022-10-18T09:43:24.651Z,16.50
2022-10-18T09:45:55.576Z,16.65
2022-10-18T09:48:28.757Z,20.38
2022-10-18T09:51:00.147Z,16.25
2022-10-18T09:53:36.954Z,14.27
2022-10-18T09:56:08.151Z,19.55
2022-10-18T09:58:44.086Z,17.25
2022-10-18T10:01:15.338Z,19.77
2022-10-18T10:03:44.384Z,20.92
2022-10-18T10:06:24.697Z,15.73
2022-10-18T10:08:58.850Z,20.77
2022-10-18T10:11:35.623Z,14.00
2022-10-18T10:14:11.625Z,17.17
2022-10-18T10:16:52.554Z,20.25
2022-10-18T10:19:25.642Z,12.40
2022-10-18T10:21:58.075Z,15.40
2022-10-18T10:24:31.291Z,15.88
2022-10-18T10:27:05.469Z,19.20
2022-10-18T10:29:53.888Z,18.02
2022-10-18T10:32:23.816Z,13.80
2022-10-18T10:34:53.182Z,16.60
2022-10-18T10:37:30.208Z,14.98
2022-10-18T10:40:21.849Z,12.32
2022-10-18T10:43:18.368Z,18.30
2022-10-18T10:45:59.134Z,15.95
2022-10-18T10:48:31.137Z,18.73
2022-10-18T10:51:06.075Z,13.18
2022-10-18T10:53:38.841Z,9.52
2022-10-18T10:56:07.968Z,11.27
2022-10-18T10:58:38.991Z,11.98
2022-10-18T11:01:25.561Z,17.17
2022-10-18T11:03:55.649Z,17.00
2022-10-18T11:06:51.223Z,15.05
2022-10-18T11:09:34.944Z,13.85
2022-10-18T11:12:09.291Z,17.40
2022-10-18T11:14:42.613Z,16.33
2022-10-18T11:21:00.970Z,11.00
2022-10-18T11:23:33.411Z,15.38
2022-10-18T11:26:21.906Z,13.65
2022-10-18T11:29:23.815Z,15.43
2022-10-18T11:32:01.630Z,16.48
2022-10-18T11:34:48.259Z,16.83
2022-10-18T11:37:34.719Z,18.70
2022-10-18T11:40:20.204Z,14.90
2022-10-18T11:42:57.793Z,16.55
2022-10-18T11:45:33.883Z,13.20
2022-10-18T11:48:11.978Z,11.90
2022-10-18T11:50:49.281Z,13.75
2022-10-18T11:53:25.668Z,17.00
2022-10-18T11:56:03.877Z,15.73
2022-10-18T11:58:45.643Z,13.60
2022-10-18T12:01:24.700Z,19.15
2022-10-18T12:04:02.974Z,18.30
2022-10-18T12:06:35.945Z,16.15
2022-10-18T12:09:09.317Z,17.90
2022-10-18T12:11:47.149Z,15.45
2022-10-18T12:14:23.678Z,16.15
2022-10-18T12:17:02.799Z,13.88
2022-10-18T12:19:41.853Z,22.85
2022-10-18T12:22:19.310Z,17.08
2022-10-18T12:24:47.038Z,15.30
2022-10-18T12:27:17.650Z,11.75
2022-10-18T12:29:51.526Z,14.35
2022-10-18T12:32:23.333Z,14.65
2022-10-18T12:34:54.061Z,9.90
2022-10-18T12:37:40.977Z,10.55
2022-10-18T12:40:18.796Z,13.85
2022-10-18T12:42:52.736Z,12.25
2022-10-18T12:45:30.174Z,13.35
2022-10-18T12:48:01.425Z,13.57
2022-10-18T12:50:35.908Z,14.70
2022-10-18T12:53:07.268Z,9.95
2022-10-18T12:55:37.584Z,13.63
2022-10-18T12:58:24.916Z,12.20
2022-10-18T13:01:05.632Z,13.20
2022-10-18T13:03:58.661Z,10.35
2022-10-18T13:06:26.475Z,6.93
2022-10-18T13:09:20.883Z,10.20
2022-10-18T13:11:49.081Z,8.35
2022-10-18T13:14:34.800Z,7.22
2022-10-18T13:17:11.963Z,11.30
2022-10-18T13:20:02.888Z,12.73
2022-10-18T13:22:51.732Z,12.10
2022-10-18T13:25:28.524Z,9.55
2022-10-18T13:28:01.919Z,8.68
2022-10-18T13:30:48.939Z,7.97
2022-10-18T13:33:39.047Z,8.68
2022-10-18T13:36:23.057Z,10.23
2022-10-18T13:39:03.129Z,8.52
2022-10-18T13:41:35.322Z,9.60
2022-10-18T13:44:25.759Z,8.48
2022-10-18T13:47:37.653Z,11.95
2022-10-18T13:50:27.912Z,8.55
2022-10-18T13:53:26.017Z,12.65
2022-10-18T13:56:09.621Z,9.63
2022-10-18T13:58:49.259Z,10.63
2022-10-18T14:01:42.685Z,8.68
2022-10-18T14:04:35.107Z,8.52
2022-10-18T14:07:05.993Z,9.70
2022-10-18T14:09:44.865Z,9.02
2022-10-18T14:12:22.530Z,8.57
2022-10-18T14:14:56.008Z,10.07
2022-10-18T14:17:31.383Z,10.98
2022-10-18T14:20:07.443Z,4.78
2022-10-18T14:22:41.978Z,10.68
2022-10-18T14:25:22.306Z,10.90
2022-10-18T14:27:53.678Z,9.65
2022-10-18T14:30:22.417Z,7.03
2022-10-18T14:32:52.716Z,9.15
2022-10-18T14:35:38.920Z,10.57
2022-10-18T14:38:14.598Z,10.87
2022-10-18T14:40:42.416Z,12.55
2022-10-18T14:43:13.589Z,11.55
2022-10-18T14:45:42.507Z,5.95
2022-10-18T14:48:16.345Z,12.80
2022-10-18T14:50:48.545Z,11.40
2022-10-18T14:53:20.980Z,17.20
2022-10-18T14:55:55.848Z,9.05
2022-10-18T14:58:23.895Z,10.18
2022-10-18T15:00:51.705Z,17.65
2022-10-18T15:03:19.762Z,9.93
2022-10-18T15:05:58.051Z,7.38
2022-10-18T15:08:27.975Z,7.95
2022-10-18T15:10:56.078Z,8.10
2022-10-18T15:13:25.132Z,9.13
2022-10-18T15:15:53.854Z,11.40
2022-10-18T15:18:24.120Z,11.80
2022-10-18T15:21:20.319Z,8.15
2022-10-18T15:23:47.988Z,11.27
2022-10-18T15:26:20.853Z,11.80
2022-10-18T15:28:53.161Z,11.18
2022-10-18T15:31:25.118Z,12.20
2022-10-18T15:33:53.551Z,7.43
2022-10-18T15:36:29.352Z,8.38
2022-10-18T15:39:08.921Z,6.90
2022-10-18T15:41:43.779Z,10.07
2022-10-18T15:44:22.087Z,7.22
2022-10-18T15:46:52.926Z,5.68
2022-10-18T15:49:52.499Z,7.50
2022-10-18T15:52:37.796Z,5.45
2022-10-18T15:55:53.532Z,6.37
2022-10-18T15:58:23.755Z,6.60
2022-10-18T16:00:52.953Z,6.30
2022-10-18T16:03:23.872Z,7.82
2022-10-18T16:05:53.243Z,6.30
2022-10-18T16:08:25.213Z,5.80
2022-10-18T16:10:53.148Z,8.15
2022-10-18T16:13:20.910Z,11.68
2022-10-18T16:15:48.750Z,8.40
2022-10-18T16:18:19.323Z,4.47
2022-10-18T16:20:48.706Z,4.70
2022-10-18T16:23:19.323Z,7.10
2022-10-18T16:25:48.729Z,7.65
2022-10-18T16:28:18.806Z,7.07
2022-10-18T16:30:48.304Z,4.60
2022-10-18T16:33:19.219Z,5.07
2022-10-18T16:35:49.429Z,8.40
2022-10-18T16:38:32.555Z,5.47
2022-10-18T16:41:05.719Z,10.23
2022-10-18T16:43:34.729Z,9.75
2022-10-18T16:46:03.724Z,4.50
2022-10-18T16:48:31.575Z,5.82
2022-10-18T16:50:59.711Z,4.85
2022-10-18T16:53:28.192Z,6.95
2022-10-18T16:55:58.339Z,6.30
2022-10-18T16:58:29.030Z,6.43
2022-10-18T17:00:57.153Z,5.80
2022-10-18T17:03:25.585Z,10.80
2022-10-18T17:05:53.574Z,6.10
2022-10-18T17:08:22.995Z,7.35
2022-10-18T17:10:52.910Z,5.38
2022-10-18T17:13:21.187Z,6.57
2022-10-18T17:15:50.898Z,7.45
2022-10-18T17:18:21.677Z,10.15
2022-10-18T17:20:50.409Z,8.88
2022-10-18T17:23:18.439Z,6.78
2022-10-18T17:25:59.056Z,3.25
2022-10-18T17:28:35.007Z,6.75
2022-10-18T17:31:07.003Z,6.90
2022-10-18T17:33:34.818Z,6.03
2022-10-18T17:36:02.720Z,4.75
2022-10-18T17:38:30.385Z,7.80
2022-10-18T17:40:58.060Z,7.97
2022-10-18T17:43:26.050Z,6.35
2022-10-18T17:45:56.703Z,6.07
2022-10-18T17:48:28.294Z,3.35
2022-10-18T17:50:56.098Z,5.13
2022-10-18T17:53:28.440Z,4.35
2022-10-18T17:56:02.462Z,5.15
2022-10-18T17:58:30.989Z,8.68
2022-10-18T18:00:58.760Z,10.98
2022-10-18T18:03:27.885Z,4.40
2022-10-18T18:05:55.709Z,7.55
2022-10-18T18:08:25.424Z,9.05
2022-10-18T18:10:55.503Z,8.57
2022-10-18T18:13:23.207Z,6.93
2022-10-18T18:15:50.942Z,5.05
2022-10-18T18:18:18.582Z,9.57
2022-10-18T18:20:55.023Z,7.72
2022-10-18T18:23:23.067Z,11.30
2022-10-18T18:25:56.339Z,10.63
2022-10-18T18:28:24.332Z,6.22
2022-10-18T18:30:52.005Z,5.78
2022-10-18T18:33:19.662Z,6.88
2022-10-18T18:35:57.171Z,6.45
2022-10-18T18:38:24.935Z,6.50
2022-10-18T18:41:04.092Z,6.43
2022-10-18T18:43:31.758Z,6.45
2022-10-18T18:45:59.523Z,5.22
2022-10-18T18:48:27.361Z,4.43
2022-10-18T18:50:56.524Z,6.35
2022-10-18T18:53:28.521Z,5.40
2022-10-18T18:56:02.431Z,8.27
2022-10-18T18:58:30.129Z,8.02
2022-10-18T19:00:57.860Z,22.35
2022-10-18T19:03:25.682Z,6.15
2022-10-18T19:06:04.680Z,4.10
2022-10-18T19:08:32.467Z,7.55
2022-10-18T19:11:00.189Z,6.53
2022-10-18T19:13:27.876Z,8.68
2022-10-18T19:16:28.216Z,4.97
2022-10-18T19:18:58.739Z,7.03
2022-10-18T19:21:30.163Z,5.05
2022-10-18T19:23:58.600Z,7.57
2022-10-18T19:26:30.261Z,8.40
2022-10-18T19:29:02.295Z,7.93
2022-10-18T19:31:30.294Z,7.15
2022-10-18T19:33:59.672Z,7.43
2022-10-18T19:36:29.439Z,6.00
2022-10-18T19:38:57.518Z,7.00
2022-10-18T19:43:58.528Z,4.97
2022-10-18T19:46:26.523Z,7.85
2022-10-18T19:48:54.896Z,7.28
2022-10-18T19:51:27.680Z,7.15
2022-10-18T19:53:57.981Z,8.60
2022-10-18T19:56:27.386Z,10.38
2022-10-18T19:58:55.302Z,6.32
2022-10-18T20:01:23.238Z,11.98
2022-10-18T20:03:51.038Z,8.77
2022-10-18T20:06:18.809Z,7.72
2022-10-18T20:08:46.780Z,9.68
2022-10-18T20:11:17.627Z,7.15
2022-10-18T20:13:45.563Z,9.55
2022-10-18T20:16:15.628Z,10.15
2022-10-18T20:18:44.158Z,4.40
2022-10-18T20:21:13.347Z,11.05
2022-10-18T20:23:42.615Z,5.93
2022-10-18T20:26:17.985Z,7.45
2022-10-18T20:28:55.897Z,8.82
2022-10-18T20:31:25.402Z,11.43
2022-10-18T20:33:56.167Z,8.05
2022-10-18T20:36:24.190Z,7.30
2022-10-18T20:38:53.048Z,6.95
2022-10-18T20:41:23.010Z,8.57
2022-10-18T20:43:56.998Z,5.47
2022-10-18T20:46:25.556Z,7.57
2022-10-18T20:48:54.306Z,7.35
2022-10-18T20:51:22.995Z,6.13
2022-10-18T20:53:51.132Z,5.65
2022-10-18T20:56:20.638Z,10.27
2022-10-18T20:58:50.476Z,11.45
2022-10-18T21:01:20.918Z,8.40
2022-10-18T21:03:50.458Z,7.85
2022-10-18T21:06:20.027Z,10.85
2022-10-18T21:08:47.928Z,8.77
2022-10-18T21:11:15.559Z,9.98
2022-10-18T21:13:43.240Z,11.82
2022-10-18T21:16:10.891Z,9.77
2022-10-18T21:18:40.383Z,13.43
2022-10-18T21:21:10.450Z,8.48
2022-10-18T21:23:38.189Z,9.07
2022-10-18T21:26:06.258Z,6.13
2022-10-18T21:28:34.241Z,7.38
2022-10-18T21:31:13.755Z,11.40
2022-10-18T21:33:43.462Z,6.25
2022-10-18T21:36:11.569Z,9.63
2022-10-18T21:38:39.897Z,10.07
2022-10-18T21:41:11.904Z,8.82
2022-10-18T21:43:41.827Z,10.73
2022-10-18T21:46:10.993Z,7.40
2022-10-18T21:48:39.500Z,6.47
2022-10-18T21:51:09.373Z,8.38
2022-10-18T21:53:37.335Z,9.75
2022-10-18T21:56:07.425Z,7.53
2022-10-18T21:58:35.987Z,12.30
2022-10-18T22:01:07.159Z,6.40
2022-10-18T22:03:34.878Z,9.93
2022-10-18T22:06:07.561Z,7.38
2022-10-18T22:08:37.032Z,10.65
2022-10-18T22:11:04.918Z,8.73
2022-10-18T22:13:32.826Z,11.63
2022-10-18T22:16:01.931Z,8.23
2022-10-18T22:18:29.802Z,10.38
2022-10-18T22:20:58.924Z,8.15
2022-10-18T22:23:32.330Z,9.00
2022-10-18T22:26:05.710Z,9.25
2022-10-18T22:28:33.413Z,11.35
2022-10-18T22:31:01.145Z,6.40
2022-10-18T22:33:29.327Z,10.27
2022-10-18T22:35:57.195Z,8.35
2022-10-18T22:38:25.162Z,7.10
2022-10-18T22:40:52.901Z,8.35
2022-10-18T22:43:21.900Z,6.45
2022-10-18T22:45:49.558Z,5.85
2022-10-18T22:48:17.235Z,9.00
2022-10-18T22:50:44.876Z,9.68
2022-10-18T22:53:12.563Z,9.27
2022-10-18T22:55:40.229Z,8.70
2022-10-18T22:58:07.917Z,11.88
2022-10-18T23:00:39.221Z,10.38
2022-10-18T23:03:07.046Z,9.90
2022-10-18T23:05:38.264Z,7.38
2022-10-18T23:08:06.195Z,7.30
2022-10-18T23:10:34.020Z,13.30
2022-10-18T23:13:02.106Z,8.55
2022-10-18T23:15:30.395Z,9.52
2022-10-18T23:17:59.689Z,8.50
2022-10-18T23:20:27.997Z,7.93
2022-10-18T23:22:55.673Z,8.63
2022-10-18T23:25:23.353Z,14.40
2022-10-18T23:27:51.016Z,9.13
2022-10-18T23:30:18.819Z,16.48
2022-10-18T23:32:46.460Z,12.38
2022-10-18T23:35:15.516Z,6.85
2022-10-18T23:37:43.141Z,7.75
2022-10-18T23:40:11.694Z,5.72
2022-10-18T23:42:39.409Z,13.95
2022-10-18T23:45:08.531Z,8.30
2022-10-18T23:47:36.361Z,8.95
2022-10-18T23:50:04.496Z,8.50
2022-10-18T23:52:33.506Z,10.57
2022-10-18T23:55:01.233Z,11.80
2022-10-18T23:57:28.893Z,10.25
2022-10-18T23:59:56.679Z,12.63
